Time;durP1;ratioP1;P1;durP2;ratioP2;P2;SDS_P1;SDS_P2;PMS_P1;PMS_P2;Temp;Humidity;BMP_temperature;BMP_pressure;BME280_temperature;BME280_humidity;BME280_pressure;Samples;Min_cycle;Max_cycle;Signal;HPM_P1;HPM_P2
2021/10/25 00:00:30;;;;;;;5.57;2.97;;;5.10;99.90;;;;;;5082592;28;20202;-47
2021/10/25 00:02:57;;;;;;;11.10;3.03;;;5.10;99.90;;;;;;5079166;28;20880;-46
2021/10/25 00:05:23;;;;;;;3.80;2.80;;;5.10;99.90;;;;;;5092075;28;20201;-49
2021/10/25 00:07:50;;;;;;;3.43;2.80;;;5.10;99.90;;;;;;5070528;28;20206;-45
2021/10/25 00:10:17;;;;;;;3.03;2.83;;;5.10;99.90;;;;;;5099703;28;20205;-46
2021/10/25 00:12:43;;;;;;;4.47;3.20;;;5.10;99.90;;;;;;5089092;28;20185;-45
2021/10/25 00:15:12;;;;;;;5.60;3.03;;;5.00;99.90;;;;;;5099134;28;20897;-46
2021/10/25 00:17:39;;;;;;;3.87;2.87;;;5.00;99.90;;;;;;5075587;28;20213;-49
2021/10/25 00:20:09;;;;;;;8.27;3.20;;;5.00;99.90;;;;;;5084703;28;20254;-45
2021/10/25 00:22:36;;;;;;;3.87;2.60;;;5.00;99.90;;;;;;5076579;28;20754;-47
2021/10/25 00:25:03;;;;;;;3.97;2.70;;;5.00;99.90;;;;;;5076116;28;20206;-48
2021/10/25 00:27:35;;;;;;;7.40;3.27;;;5.00;99.90;;;;;;5081488;28;20237;-49
2021/10/25 00:30:01;;;;;;;5.33;3.00;;;5.00;99.90;;;;;;5083432;28;20566;-46
2021/10/25 00:32:29;;;;;;;4.23;2.77;;;5.00;99.90;;;;;;5072687;28;20194;-47
2021/10/25 00:34:56;;;;;;;6.10;3.10;;;4.90;99.90;;;;;;5084217;28;20209;-45
2021/10/25 00:37:23;;;;;;;3.37;2.93;;;4.90;99.90;;;;;;5086121;28;20200;-47
2021/10/25 00:39:49;;;;;;;6.53;3.10;;;4.90;99.90;;;;;;5079867;28;20226;-45
2021/10/25 00:42:16;;;;;;;3.90;2.97;;;4.90;99.90;;;;;;5090623;28;20222;-49
2021/10/25 00:44:43;;;;;;;3.83;2.77;;;4.90;99.90;;;;;;5088063;28;20238;-49
2021/10/25 00:47:10;;;;;;;4.93;3.60;;;4.90;99.90;;;;;;5058765;28;20193;-47
2021/10/25 00:49:39;;;;;;;4.30;2.80;;;4.80;99.90;;;;;;5084894;28;20667;-48
2021/10/25 00:52:06;;;;;;;4.70;3.20;;;4.80;99.90;;;;;;5076119;28;20251;-47
2021/10/25 00:54:35;;;;;;;4.80;3.00;;;4.80;99.90;;;;;;5075275;28;20229;-49
2021/10/25 00:57:03;;;;;;;4.53;2.87;;;4.80;99.90;;;;;;5075271;28;20251;-47
2021/10/25 00:59:30;;;;;;;4.93;3.07;;;4.70;99.90;;;;;;5080636;28;20537;-46
2021/10/25 01:01:57;;;;;;;5.57;2.63;;;4.70;99.90;;;;;;5073000;28;20220;-49
2021/10/25 01:04:23;;;;;;;4.13;2.60;;;4.60;99.90;;;;;;5082184;28;20249;-46
2021/10/25 01:06:52;;;;;;;3.40;2.70;;;4.50;99.90;;;;;;5077297;28;20202;-46
2021/10/25 01:09:19;;;;;;;6.63;2.70;;;4.50;99.90;;;;;;5076981;28;20198;-46
2021/10/25 01:11:48;;;;;;;4.53;3.03;;;4.50;99.90;;;;;;5076053;28;20215;-49
2021/10/25 01:14:16;;;;;;;4.60;2.73;;;4.40;99.90;;;;;;5085412;28;20225;-46
2021/10/25 01:16:42;;;;;;;7.50;3.93;;;4.40;99.90;;;;;;5098007;28;20300;-44
2021/10/25 01:19:10;;;;;;;4.73;4.13;;;4.40;99.90;;;;;;5072909;28;20561;-49
2021/10/25 01:21:38;;;;;;;3.90;3.50;;;4.40;99.90;;;;;;5084535;28;20206;-49
2021/10/25 01:24:05;;;;;;;4.70;4.20;;;4.40;99.90;;;;;;5080831;28;20228;-49
2021/10/25 01:26:32;;;;;;;5.37;3.93;;;4.40;99.90;;;;;;5080096;28;20291;-50
2021/10/25 01:28:59;;;;;;;4.60;4.13;;;4.30;99.90;;;;;;5082896;28;20201;-46
2021/10/25 01:31:26;;;;;;;6.57;4.93;;;4.20;99.90;;;;;;5079032;28;20216;-46
2021/10/25 01:33:53;;;;;;;5.33;4.23;;;4.20;99.90;;;;;;5069664;28;20221;-45
2021/10/25 01:36:23;;;;;;;8.53;4.80;;;4.30;99.90;;;;;;5080071;28;20293;-49
2021/10/25 01:38:52;;;;;;;7.77;4.43;;;4.20;99.90;;;;;;5076507;28;20209;-46
2021/10/25 01:41:19;;;;;;;5.03;3.80;;;4.20;99.90;;;;;;5078281;28;20210;-48
2021/10/25 01:43:47;;;;;;;5.80;4.20;;;4.10;99.90;;;;;;5084392;28;20228;-45
2021/10/25 01:46:14;;;;;;;5.93;3.87;;;4.10;99.90;;;;;;5083602;28;20936;-50
2021/10/25 01:48:41;;;;;;;7.20;3.93;;;4.10;99.90;;;;;;5083176;28;20201;-45
2021/10/25 01:51:08;;;;;;;5.50;4.20;;;4.10;99.90;;;;;;5073561;28;20206;-46
2021/10/25 01:53:35;;;;;;;13.07;4.57;;;4.10;99.90;;;;;;5080123;28;20206;-47
2021/10/25 01:56:05;;;;;;;4.47;4.03;;;4.00;99.90;;;;;;5071065;28;20691;-45
2021/10/25 01:58:34;;;;;;;4.63;3.60;;;4.10;99.90;;;;;;5079318;28;20663;-46
2021/10/25 02:01:04;;;;;;;5.63;4.00;;;4.00;99.90;;;;;;5101341;28;20614;-47
2021/10/25 02:03:32;;;;;;;3.87;3.47;;;4.10;99.90;;;;;;5101837;28;20221;-47
2021/10/25 02:06:04;;;;;;;7.03;3.40;;;4.10;99.90;;;;;;5077490;28;20202;-47
2021/10/25 02:08:31;;;;;;;6.63;3.10;;;4.10;99.90;;;;;;5082207;28;20221;-46
2021/10/25 02:11:00;;;;;;;6.70;3.60;;;4.10;99.90;;;;;;5082659;28;20629;-45
2021/10/25 02:13:30;;;;;;;3.67;3.27;;;4.10;99.90;;;;;;5085347;28;20209;-50
2021/10/25 02:16:02;;;;;;;4.33;3.43;;;4.10;99.90;;;;;;5086214;28;20289;-48
2021/10/25 02:18:28;;;;;;;3.93;3.13;;;4.00;99.90;;;;;;5093664;28;20255;-47
2021/10/25 02:20:55;;;;;;;6.10;3.60;;;3.90;99.90;;;;;;5101273;28;20277;-48
2021/10/25 02:23:23;;;;;;;5.03;3.23;;;3.90;99.90;;;;;;5077297;28;20213;-47
2021/10/25 02:25:55;;;;;;;3.77;3.20;;;3.80;99.90;;;;;;5081582;28;20209;-48
2021/10/25 02:28:23;;;;;;;4.37;3.10;;;3.80;99.90;;;;;;5079322;28;20200;-50
2021/10/25 02:30:55;;;;;;;6.03;3.53;;;3.70;99.90;;;;;;5103069;28;20205;-52
2021/10/25 02:33:23;;;;;;;6.00;3.40;;;3.70;99.90;;;;;;5099696;28;20237;-50
2021/10/25 02:35:51;;;;;;;3.80;3.30;;;3.70;99.90;;;;;;5103164;28;20201;-50
2021/10/25 02:38:20;;;;;;;4.13;3.60;;;3.70;99.90;;;;;;5074197;28;20204;-51
2021/10/25 02:40:53;;;;;;;5.97;3.33;;;3.70;99.90;;;;;;5083326;28;20201;-51
2021/10/25 02:43:21;;;;;;;4.70;3.43;;;3.70;99.90;;;;;;5074499;28;20226;-46
2021/10/25 02:45:47;;;;;;;7.47;3.60;;;3.60;99.90;;;;;;5083256;28;20205;-49
2021/10/25 02:48:16;;;;;;;6.03;3.70;;;3.60;99.90;;;;;;5091170;28;20215;-46
2021/10/25 02:50:43;;;;;;;3.93;3.30;;;3.60;99.90;;;;;;5102920;28;20201;-45
2021/10/25 02:53:11;;;;;;;4.97;3.10;;;3.60;99.90;;;;;;5086672;28;20217;-52
2021/10/25 02:55:38;;;;;;;4.57;3.33;;;3.60;99.90;;;;;;5090364;28;20225;-48
2021/10/25 02:58:06;;;;;;;4.63;3.33;;;3.60;99.90;;;;;;5078360;28;20216;-45
2021/10/25 03:00:33;;;;;;;4.30;3.20;;;3.60;99.90;;;;;;5098267;28;20197;-49
2021/10/25 03:03:03;;;;;;;4.77;3.37;;;3.60;99.90;;;;;;5100392;28;20727;-49
2021/10/25 03:05:31;;;;;;;4.60;3.20;;;3.60;99.90;;;;;;5100641;28;20220;-46
2021/10/25 03:07:58;;;;;;;4.63;3.50;;;3.60;99.90;;;;;;5098817;28;20674;-50
2021/10/25 03:10:24;;;;;;;3.63;3.17;;;3.60;99.90;;;;;;5069792;28;20204;-49
2021/10/25 03:12:51;;;;;;;3.40;3.10;;;3.70;99.90;;;;;;5082581;28;20222;-44
2021/10/25 03:15:18;;;;;;;4.73;3.20;;;3.70;99.90;;;;;;5076975;28;20198;-48
2021/10/25 03:17:45;;;;;;;4.60;3.30;;;3.70;99.90;;;;;;5092602;28;20539;-49
2021/10/25 03:20:23;;;;;;;4.00;3.50;;;3.70;99.90;;;;;;5099475;28;20300;-46
2021/10/25 03:22:51;;;;;;;6.60;3.13;;;3.70;99.90;;;;;;5101867;28;20217;-45
2021/10/25 03:25:21;;;;;;;4.83;3.03;;;3.70;99.90;;;;;;5072329;28;20194;-44
2021/10/25 03:27:48;;;;;;;4.40;3.27;;;3.60;99.90;;;;;;5082257;28;20205;-48
2021/10/25 03:30:17;;;;;;;5.87;3.20;;;3.60;99.90;;;;;;5073979;28;20201;-47
2021/10/25 03:32:48;;;;;;;5.60;2.80;;;3.60;99.90;;;;;;5076479;28;20198;-44
2021/10/25 03:35:39;;;;;;;4.73;2.67;;;3.60;99.90;;;;;;5082415;28;20256;-48
2021/10/25 03:38:12;;;;;;;3.17;2.87;;;3.50;99.90;;;;;;5079379;28;20202;-48
2021/10/25 03:40:42;;;;;;;4.03;3.40;;;3.50;99.90;;;;;;5067880;28;20202;-49
2021/10/25 03:43:09;;;;;;;7.40;3.57;;;3.50;99.90;;;;;;5082711;28;20247;-49
2021/10/25 03:45:39;;;;;;;4.77;3.30;;;3.50;99.90;;;;;;5076751;28;20263;-47
2021/10/25 03:48:11;;;;;;;4.63;3.03;;;3.50;99.90;;;;;;5095231;28;20282;-47
2021/10/25 03:50:39;;;;;;;3.30;3.00;;;3.40;99.90;;;;;;5103254;28;20713;-44
2021/10/25 03:53:20;;;;;;;5.73;3.60;;;3.30;99.90;;;;;;5098939;28;20224;-44
2021/10/25 03:55:55;;;;;;;3.80;3.03;;;3.30;99.90;;;;;;5080945;28;20202;-45
2021/10/25 03:58:46;;;;;;;3.93;3.00;;;3.30;99.90;;;;;;5074701;28;20202;-44
2021/10/25 04:04:21;;;;;;;3.33;3.00;;;3.30;99.90;;;;;;5069096;28;21014;-46
2021/10/25 04:26:37;;;;;;;3.97;2.93;;;3.00;99.90;;;;;;5078870;28;20300;-48
2021/10/25 04:29:04;;;;;;;3.33;3.03;;;3.00;99.90;;;;;;5084976;28;20194;-49
2021/10/25 04:31:31;;;;;;;6.10;3.60;;;3.00;99.90;;;;;;5085821;28;20274;-49
2021/10/25 04:34:00;;;;;;;5.47;3.13;;;3.10;99.90;;;;;;5085851;28;20305;-46
2021/10/25 04:36:46;;;;;;;5.23;3.27;;;3.10;99.90;;;;;;5083981;28;20842;-46
2021/10/25 04:39:31;;;;;;;3.70;3.27;;;3.00;99.90;;;;;;5082134;28;20220;-48
2021/10/25 04:42:04;;;;;;;3.93;3.43;;;3.10;99.90;;;;;;5089421;28;20247;-47
2021/10/25 04:44:31;;;;;;;4.30;3.27;;;3.10;99.90;;;;;;5065268;28;20321;-44
2021/10/25 04:46:58;;;;;;;5.20;3.50;;;3.00;99.90;;;;;;5086678;28;20284;-45
2021/10/25 04:49:25;;;;;;;7.27;3.30;;;3.10;99.90;;;;;;5079553;28;20229;-47
2021/10/25 04:52:11;;;;;;;7.00;3.83;;;3.00;99.90;;;;;;5106229;28;20342;-44
2021/10/25 04:54:38;;;;;;;4.27;3.37;;;3.00;99.90;;;;;;5100681;28;20760;-48
2021/10/25 04:57:06;;;;;;;5.47;3.07;;;3.00;99.90;;;;;;5099080;28;20243;-46
2021/10/25 04:59:33;;;;;;;6.70;3.77;;;3.00;99.90;;;;;;5069536;28;20296;-47
2021/10/25 05:02:00;;;;;;;4.80;3.43;;;3.00;99.90;;;;;;5098839;28;20236;-44
2021/10/25 05:04:28;;;;;;;3.77;3.30;;;3.00;99.90;;;;;;5077781;28;20221;-46
2021/10/25 05:06:55;;;;;;;4.53;3.43;;;3.00;99.90;;;;;;5090345;28;20190;-45
2021/10/25 05:09:21;;;;;;;6.17;3.53;;;3.00;99.90;;;;;;5084646;28;20215;-49
2021/10/25 05:11:48;;;;;;;3.73;3.40;;;3.00;99.90;;;;;;5082029;28;20205;-45
2021/10/25 05:14:17;;;;;;;6.93;3.60;;;3.00;99.90;;;;;;5071993;28;20217;-45
2021/10/25 05:16:48;;;;;;;3.53;3.17;;;3.00;99.90;;;;;;5076331;28;20346;-46
2021/10/25 05:19:15;;;;;;;4.67;3.67;;;2.90;99.90;;;;;;5093251;28;20750;-46
2021/10/25 05:21:47;;;;;;;5.30;3.30;;;2.90;99.90;;;;;;5076673;28;20209;-47
2021/10/25 05:24:14;;;;;;;4.37;3.67;;;3.00;99.90;;;;;;5075441;28;20272;-45
2021/10/25 05:26:41;;;;;;;4.47;3.47;;;3.00;99.90;;;;;;5080455;28;20190;-44
2021/10/25 05:29:08;;;;;;;3.77;3.47;;;3.00;99.90;;;;;;5081362;28;20277;-48
2021/10/25 05:31:36;;;;;;;4.57;3.67;;;2.90;99.90;;;;;;5072600;28;20206;-49
2021/10/25 05:34:03;;;;;;;4.97;3.23;;;2.90;99.90;;;;;;5078462;28;20301;-53
2021/10/25 05:36:30;;;;;;;5.13;3.33;;;2.80;99.90;;;;;;5079691;28;20197;-52
2021/10/25 05:38:57;;;;;;;8.10;4.07;;;2.80;99.90;;;;;;5078354;28;20190;-53
2021/10/25 05:41:24;;;;;;;4.83;3.90;;;2.80;99.90;;;;;;5079660;28;20201;-51
2021/10/25 05:43:51;;;;;;;5.77;3.57;;;2.80;99.90;;;;;;5071947;28;20214;-52
2021/10/25 05:46:18;;;;;;;7.57;4.13;;;2.80;99.90;;;;;;5071791;28;20746;-50
2021/10/25 05:48:46;;;;;;;6.73;3.90;;;2.70;99.90;;;;;;5085401;28;20229;-52
2021/10/25 05:51:14;;;;;;;5.20;4.20;;;2.70;99.90;;;;;;5070014;28;21121;-52
2021/10/25 05:53:41;;;;;;;5.40;3.60;;;2.70;99.90;;;;;;5071829;28;20622;-53
2021/10/25 05:56:08;;;;;;;4.50;4.13;;;2.70;99.90;;;;;;5067570;28;20212;-48
2021/10/25 05:58:36;;;;;;;4.63;3.23;;;2.70;99.90;;;;;;5080961;28;20205;-49
2021/10/25 06:01:07;;;;;;;8.37;4.20;;;2.60;99.90;;;;;;5067311;28;24144;-51
2021/10/25 06:03:54;;;;;;;6.00;3.83;;;2.60;99.90;;;;;;5081316;28;20226;-50
2021/10/25 06:06:20;;;;;;;3.97;3.60;;;2.70;99.90;;;;;;5086581;28;20225;-52
2021/10/25 06:08:47;;;;;;;6.97;4.13;;;2.60;99.90;;;;;;5077781;28;20742;-50
2021/10/25 06:11:14;;;;;;;5.47;3.60;;;2.60;99.90;;;;;;5086217;28;20226;-48
2021/10/25 06:13:41;;;;;;;6.60;3.80;;;2.60;99.90;;;;;;5086380;28;20226;-54
2021/10/25 06:16:17;;;;;;;5.43;4.60;;;2.60;99.90;;;;;;5084866;28;20197;-49
2021/10/25 06:18:50;;;;;;;4.67;3.80;;;2.60;99.90;;;;;;5069409;28;20205;-50
2021/10/25 06:21:18;;;;;;;6.13;4.40;;;2.60;99.90;;;;;;5073292;28;20251;-51
2021/10/25 06:23:44;;;;;;;5.73;3.90;;;2.60;99.90;;;;;;5082232;28;20500;-48
2021/10/25 06:26:26;;;;;;;5.60;4.20;;;2.60;99.90;;;;;;5065176;28;21304;-48
2021/10/25 06:28:52;;;;;;;8.33;4.20;;;2.50;99.90;;;;;;5077765;28;20288;-51
2021/10/25 06:31:20;;;;;;;4.23;3.80;;;2.60;99.90;;;;;;5074388;28;20206;-52
2021/10/25 06:34:03;;;;;;;7.70;4.33;;;2.60;99.90;;;;;;5064711;28;20295;-51
2021/10/25 06:36:31;;;;;;;4.30;3.90;;;2.60;99.90;;;;;;5075960;28;20294;-54
2021/10/25 06:39:10;;;;;;;6.97;4.17;;;2.70;99.90;;;;;;5059813;28;20276;-52
2021/10/25 06:41:40;;;;;;;9.37;4.87;;;2.80;99.90;;;;;;5076450;28;20232;-54
2021/10/25 06:44:08;;;;;;;10.93;5.20;;;2.80;99.90;;;;;;5072137;28;20674;-54
2021/10/25 06:46:39;;;;;;;5.50;5.00;;;2.90;99.90;;;;;;5083154;28;20895;-51
2021/10/25 06:49:07;;;;;;;6.03;4.37;;;3.00;99.90;;;;;;5066168;28;20205;-52
2021/10/25 06:51:34;;;;;;;7.00;4.30;;;3.00;99.90;;;;;;5078399;28;20221;-51
2021/10/25 06:54:02;;;;;;;7.70;5.03;;;3.10;99.90;;;;;;5071374;28;20226;-51
2021/10/25 06:56:31;;;;;;;8.20;5.17;;;3.10;99.90;;;;;;5074902;28;20785;-55
2021/10/25 06:58:58;;;;;;;8.67;4.80;;;3.10;99.90;;;;;;5074510;28;20194;-51
2021/10/25 07:01:26;;;;;;;9.17;4.80;;;3.20;99.90;;;;;;5083749;28;20185;-51
2021/10/25 07:03:53;;;;;;;4.97;4.13;;;3.30;99.90;;;;;;5069265;28;20299;-49
2021/10/25 07:06:24;;;;;;;5.37;4.80;;;3.40;99.90;;;;;;5079514;28;20195;-54
2021/10/25 07:08:52;;;;;;;7.03;4.10;;;3.40;99.90;;;;;;5078324;28;20292;-53
2021/10/25 07:11:19;;;;;;;5.90;4.67;;;3.40;99.90;;;;;;5079311;28;20197;-53
2021/10/25 07:13:48;;;;;;;7.47;4.67;;;3.40;99.90;;;;;;5074009;28;20213;-53
2021/10/25 07:16:19;;;;;;;7.40;5.37;;;3.40;99.90;;;;;;5079321;28;20205;-51
2021/10/25 07:19:14;;;;;;;9.03;5.50;;;3.50;99.90;;;;;;5067215;28;20225;-54
2021/10/25 08:06:45;;;;;;;15.53;8.97;;;5.40;99.90;;;;;;5031797;28;20281;-53
2021/10/25 08:09:22;;;;;;;12.60;9.30;;;5.70;99.90;;;;;;5050718;28;20230;-50
2021/10/25 08:11:52;;;;;;;14.73;9.33;;;5.90;99.90;;;;;;5045670;28;20369;-52
2021/10/25 08:14:27;;;;;;;13.57;10.13;;;6.20;99.90;;;;;;5050086;28;20218;-52
2021/10/25 08:16:56;;;;;;;13.80;9.30;;;6.40;99.90;;;;;;5055885;28;20290;-54
2021/10/25 08:19:25;;;;;;;10.93;8.17;;;6.60;99.90;;;;;;5027744;28;20254;-53
2021/10/25 08:21:54;;;;;;;13.23;9.23;;;6.70;99.90;;;;;;5041915;28;20298;-50
2021/10/25 08:24:22;;;;;;;11.90;8.17;;;7.00;99.90;;;;;;5046659;28;21038;-51
2021/10/25 08:27:13;;;;;;;13.83;8.37;;;7.10;99.90;;;;;;5040422;28;20300;-51
2021/10/25 08:29:40;;;;;;;9.97;7.27;;;7.40;99.90;;;;;;5036785;28;20220;-54
2021/10/25 08:32:14;;;;;;;11.43;8.87;;;7.50;99.90;;;;;;5056198;28;20192;-54
2021/10/25 08:34:55;;;;;;;9.10;8.03;;;7.60;99.90;;;;;;5046341;28;20227;-51
2021/10/25 08:40:30;;;;;;;8.83;7.50;;;7.80;99.90;;;;;;5040760;28;20199;-52
2021/10/25 08:42:58;;;;;;;9.73;7.67;;;7.90;99.90;;;;;;5033516;28;20235;-50
2021/10/25 08:45:29;;;;;;;11.63;7.20;;;8.00;99.90;;;;;;5023049;28;20210;-51
2021/10/25 08:47:57;;;;;;;14.80;8.47;;;8.10;99.90;;;;;;5029955;28;20206;-50
2021/10/25 08:50:30;;;;;;;12.10;7.77;;;8.10;99.90;;;;;;5035882;28;20560;-54
2021/10/25 08:52:59;;;;;;;9.77;7.40;;;8.20;99.90;;;;;;5023947;28;21570;-53
2021/10/25 08:55:35;;;;;;;13.33;8.30;;;8.30;99.90;;;;;;5023963;28;20199;-46
2021/10/25 08:58:02;;;;;;;8.77;7.50;;;8.50;99.90;;;;;;5028113;28;20210;-49
2021/10/25 09:00:38;;;;;;;9.73;7.13;;;8.60;99.90;;;;;;5018143;28;20251;-47
2021/10/25 09:03:20;;;;;;;11.67;7.50;;;8.80;99.90;;;;;;5038059;28;20314;-46
2021/10/25 09:05:58;;;;;;;9.97;7.40;;;8.80;99.90;;;;;;5026754;28;20934;-48
2021/10/25 09:08:25;;;;;;;11.97;7.27;;;8.80;99.90;;;;;;5023602;28;20676;-47
2021/10/25 09:10:54;;;;;;;11.27;7.40;;;8.90;99.90;;;;;;5028464;28;20200;-49
2021/10/25 09:13:22;;;;;;;10.33;7.97;;;8.90;99.90;;;;;;5032595;28;20242;-47
2021/10/25 09:15:52;;;;;;;10.37;8.10;;;9.00;99.90;;;;;;5026496;28;20230;-48
2021/10/25 09:18:42;;;;;;;9.67;7.07;;;9.10;99.90;;;;;;5028254;28;20247;-47
2021/10/25 09:21:10;;;;;;;7.00;6.03;;;9.10;99.90;;;;;;5037347;28;20330;-48
2021/10/25 09:23:40;;;;;;;12.43;7.60;;;9.20;99.90;;;;;;5018102;28;20316;-46
2021/10/25 09:26:11;;;;;;;14.67;8.20;;;9.30;99.90;;;;;;5028055;28;20592;-46
2021/10/25 09:28:45;;;;;;;10.03;7.10;;;9.40;99.90;;;;;;5021801;28;20955;-48
2021/10/25 09:31:19;;;;;;;10.57;7.50;;;9.50;99.90;;;;;;5051756;28;20207;-46
2021/10/25 09:33:51;;;;;;;14.20;8.63;;;9.50;99.90;;;;;;5025432;28;20785;-45
2021/10/25 09:36:30;;;;;;;10.97;7.37;;;9.60;99.90;;;;;;5033792;28;20206;-49
2021/10/25 09:39:05;;;;;;;11.20;7.03;;;9.60;99.90;;;;;;5019406;28;20200;-48
2021/10/25 09:41:56;;;;;;;12.60;8.27;;;9.70;99.90;;;;;;5030838;28;20192;-51
2021/10/25 09:50:46;;;;;;;8.20;7.07;;;9.90;99.90;;;;;;5033757;28;20477;-45
2021/10/25 09:53:15;;;;;;;10.07;7.97;;;10.00;99.90;;;;;;5039617;28;20222;-49
2021/10/25 09:55:43;;;;;;;8.57;7.23;;;10.10;99.90;;;;;;5009698;28;20684;-48
2021/10/25 09:58:19;;;;;;;8.13;6.43;;;10.20;99.90;;;;;;5034326;28;20207;-45
2021/10/25 10:00:57;;;;;;;11.20;7.87;;;10.30;99.90;;;;;;5027842;28;20215;-44
2021/10/25 10:03:24;;;;;;;11.60;7.40;;;10.30;99.90;;;;;;5032941;28;20254;-46
2021/10/25 10:06:02;;;;;;;8.63;6.67;;;10.30;99.90;;;;;;5036875;28;20294;-45
2021/10/25 10:08:35;;;;;;;16.07;8.90;;;10.40;99.90;;;;;;5032177;28;20199;-46
2021/10/25 10:11:14;;;;;;;8.00;6.53;;;10.40;99.90;;;;;;5016542;28;20298;-45
2021/10/25 10:13:43;;;;;;;9.77;7.00;;;10.50;99.90;;;;;;5021498;28;20303;-45
2021/10/25 10:16:17;;;;;;;7.77;6.73;;;10.50;99.90;;;;;;5031704;28;20206;-50
2021/10/25 10:18:50;;;;;;;9.70;6.37;;;10.50;99.90;;;;;;5025826;28;20241;-47
2021/10/25 10:21:42;;;;;;;9.50;6.83;;;10.60;99.90;;;;;;5030554;28;20199;-46
2021/10/25 10:24:20;;;;;;;9.20;6.63;;;10.70;99.90;;;;;;5037000;28;20226;-45
2021/10/25 10:26:54;;;;;;;6.97;6.17;;;10.80;99.90;;;;;;5028104;28;20259;-47
2021/10/25 10:29:22;;;;;;;6.27;5.73;;;10.80;99.90;;;;;;5030929;28;20304;-46
2021/10/25 10:32:06;;;;;;;6.67;5.70;;;10.90;99.90;;;;;;5025256;28;20218;-47
2021/10/25 10:35:04;;;;;;;8.00;6.43;;;11.00;99.90;;;;;;5034982;28;20696;-45
2021/10/25 10:38:00;;;;;;;12.50;7.90;;;11.10;99.90;;;;;;5028026;28;20233;-44
2021/10/25 10:40:37;;;;;;;7.23;6.23;;;11.20;99.90;;;;;;5030560;28;20253;-44
2021/10/25 10:43:23;;;;;;;10.63;8.80;;;11.30;99.90;;;;;;5032877;28;20243;-46
2021/10/25 10:46:02;;;;;;;6.90;5.77;;;11.40;99.90;;;;;;5034972;28;20325;-46
2021/10/25 10:48:31;;;;;;;7.57;6.37;;;11.50;99.90;;;;;;5030973;28;20203;-49
2021/10/25 10:51:04;;;;;;;8.37;6.57;;;11.50;99.90;;;;;;5034711;28;20285;-48
2021/10/25 10:53:33;;;;;;;8.83;6.43;;;11.60;99.90;;;;;;5034284;28;20234;-48
2021/10/25 10:56:05;;;;;;;8.27;6.10;;;11.60;99.90;;;;;;5025840;28;20302;-47
2021/10/25 10:58:45;;;;;;;6.50;5.40;;;11.60;99.90;;;;;;5021579;28;20636;-45
2021/10/25 11:01:11;;;;;;;9.13;5.60;;;11.60;99.90;;;;;;5032529;28;20217;-46
2021/10/25 11:03:38;;;;;;;10.50;8.03;;;11.60;99.90;;;;;;5024239;28;20306;-44
2021/10/25 11:06:09;;;;;;;7.30;5.33;;;11.70;99.90;;;;;;5041202;28;20199;-45
2021/10/25 11:08:38;;;;;;;7.67;5.40;;;11.70;99.90;;;;;;5034336;28;20282;-45
2021/10/25 11:11:08;;;;;;;9.33;7.13;;;11.70;99.90;;;;;;5027949;28;20219;-46
2021/10/25 11:13:42;;;;;;;9.40;5.07;;;11.60;99.90;;;;;;5021840;28;21012;-48
2021/10/25 11:16:15;;;;;;;8.43;6.57;;;11.60;99.90;;;;;;5030226;28;20901;-45
2021/10/25 11:18:44;;;;;;;9.57;5.70;;;11.60;99.90;;;;;;5025905;28;20193;-48
2021/10/25 11:21:16;;;;;;;10.40;8.17;;;11.60;99.90;;;;;;5038957;28;20652;-44
2021/10/25 11:23:47;;;;;;;8.97;5.67;;;11.70;99.90;;;;;;5034437;28;20474;-47
2021/10/25 11:26:19;;;;;;;6.83;5.03;;;11.70;99.90;;;;;;5021162;28;20624;-46
2021/10/25 11:28:58;;;;;;;8.90;4.47;;;11.80;99.90;;;;;;5020371;28;20887;-44
2021/10/25 11:31:25;;;;;;;6.63;4.30;;;11.80;99.90;;;;;;5031444;28;20669;-44
2021/10/25 11:33:52;;;;;;;5.60;4.43;;;11.80;99.90;;;;;;5034949;28;20223;-47
2021/10/25 11:36:21;;;;;;;5.07;4.50;;;11.80;99.90;;;;;;5036781;28;20277;-44
2021/10/25 11:38:48;;;;;;;6.00;4.73;;;11.80;99.90;;;;;;5038480;28;20301;-49
2021/10/25 11:41:16;;;;;;;7.87;4.80;;;11.90;99.90;;;;;;5038259;28;20210;-47
2021/10/25 11:43:42;;;;;;;7.53;4.43;;;11.90;99.90;;;;;;5028730;28;20215;-46
2021/10/25 11:46:17;;;;;;;7.77;4.20;;;11.90;99.90;;;;;;5022677;28;20703;-45
2021/10/25 11:48:51;;;;;;;8.10;5.70;;;12.00;99.90;;;;;;5027309;28;20195;-48
2021/10/25 11:51:18;;;;;;;7.87;5.93;;;12.00;99.90;;;;;;5027294;28;20308;-45
2021/10/25 11:53:45;;;;;;;9.07;4.60;;;12.10;99.90;;;;;;5036645;28;20215;-46
2021/10/25 11:56:15;;;;;;;8.20;6.83;;;12.20;99.90;;;;;;5037569;28;20670;-49
2021/10/25 11:58:43;;;;;;;8.07;5.33;;;12.20;99.90;;;;;;5024859;28;20188;-44
2021/10/25 12:01:14;;;;;;;6.63;4.77;;;12.20;99.90;;;;;;5025991;28;20619;-45
2021/10/25 12:03:45;;;;;;;7.43;5.20;;;12.30;99.90;;;;;;5026418;28;20226;-47
2021/10/25 12:06:21;;;;;;;10.07;6.20;;;12.30;99.90;;;;;;5030315;28;20203;-46
2021/10/25 12:08:56;;;;;;;8.23;5.47;;;12.30;99.90;;;;;;5033342;28;20195;-47
2021/10/25 12:11:49;;;;;;;8.33;4.93;;;12.30;99.90;;;;;;5037805;28;20218;-50
2021/10/25 12:14:17;;;;;;;6.97;5.67;;;12.30;99.90;;;;;;5030735;28;20220;-43
2021/10/25 12:16:47;;;;;;;6.63;5.30;;;12.30;99.90;;;;;;5023629;28;20212;-44
2021/10/25 12:19:14;;;;;;;7.70;5.77;;;12.30;99.90;;;;;;5034623;28;20203;-45
2021/10/25 12:21:41;;;;;;;6.30;5.10;;;12.20;99.90;;;;;;5026076;28;20574;-46
2021/10/25 12:24:10;;;;;;;7.63;5.07;;;12.20;99.90;;;;;;5039813;28;20225;-45
2021/10/25 12:26:41;;;;;;;7.30;5.43;;;12.20;99.90;;;;;;5037583;28;20202;-47
2021/10/25 12:29:16;;;;;;;7.80;4.83;;;12.20;99.90;;;;;;5031914;28;20298;-47
2021/10/25 12:31:44;;;;;;;8.53;6.10;;;12.10;99.90;;;;;;5028614;28;20199;-46
2021/10/25 12:34:11;;;;;;;5.17;4.10;;;12.10;99.90;;;;;;5042402;28;20307;-44
2021/10/25 12:36:40;;;;;;;6.50;4.73;;;12.00;99.90;;;;;;5037735;28;20209;-46
2021/10/25 12:39:10;;;;;;;7.87;4.97;;;12.00;99.90;;;;;;5040117;28;20207;-46
2021/10/25 12:41:50;;;;;;;8.47;6.53;;;12.00;99.90;;;;;;5032220;28;20219;-47
2021/10/25 12:44:26;;;;;;;10.77;6.13;;;12.00;99.90;;;;;;5038283;28;20229;-44
2021/10/25 12:47:03;;;;;;;6.07;5.20;;;12.10;99.90;;;;;;5025507;28;20269;-46
2021/10/25 12:49:30;;;;;;;8.43;6.13;;;12.10;99.90;;;;;;5034973;28;20211;-46
2021/10/25 12:52:04;;;;;;;7.83;5.47;;;12.00;99.90;;;;;;5030854;28;22289;-48
2021/10/25 12:54:34;;;;;;;7.17;4.87;;;12.00;99.90;;;;;;5039719;28;20989;-45
2021/10/25 12:57:05;;;;;;;6.60;4.27;;;12.10;99.90;;;;;;5031978;28;21057;-44
2021/10/25 12:59:33;;;;;;;11.80;5.87;;;12.10;99.90;;;;;;5035795;28;20727;-45
2021/10/25 13:02:01;;;;;;;5.87;5.23;;;12.10;99.90;;;;;;5021556;28;20238;-48
2021/10/25 13:04:30;;;;;;;5.20;4.70;;;12.10;99.90;;;;;;5040890;28;20286;-44
2021/10/25 13:06:57;;;;;;;8.47;4.60;;;12.10;99.90;;;;;;5034083;28;20334;-47
2021/10/25 13:09:24;;;;;;;4.83;4.33;;;12.10;99.90;;;;;;5031779;28;20219;-46
2021/10/25 13:11:51;;;;;;;7.70;4.43;;;12.10;99.90;;;;;;5036471;28;20226;-44
2021/10/25 13:14:19;;;;;;;7.27;4.60;;;12.20;99.90;;;;;;5040062;28;20306;-47
2021/10/25 13:16:49;;;;;;;8.80;4.03;;;12.10;99.90;;;;;;5031624;28;20206;-45
2021/10/25 13:19:18;;;;;;;6.13;4.50;;;12.20;99.90;;;;;;5029299;28;20203;-44
2021/10/25 13:21:47;;;;;;;11.03;4.50;;;12.20;99.90;;;;;;5033836;28;20191;-46
2021/10/25 13:24:14;;;;;;;5.23;3.90;;;12.20;99.90;;;;;;5031496;28;20231;-47
2021/10/25 13:26:41;;;;;;;7.23;4.10;;;12.20;99.90;;;;;;5035431;28;20207;-48
2021/10/25 13:29:08;;;;;;;9.60;4.67;;;12.20;99.90;;;;;;5035332;28;20207;-47
2021/10/25 13:31:36;;;;;;;6.30;4.03;;;12.20;99.90;;;;;;5042599;28;20220;-44
2021/10/25 13:34:03;;;;;;;4.87;4.37;;;12.20;99.90;;;;;;5025948;28;20324;-43
2021/10/25 13:36:30;;;;;;;8.53;4.30;;;12.20;99.90;;;;;;5038720;28;20290;-44
2021/10/25 13:38:57;;;;;;;4.97;4.00;;;12.20;99.90;;;;;;5033412;28;20203;-47
2021/10/25 13:41:23;;;;;;;5.13;3.87;;;12.20;99.90;;;;;;5041588;28;20211;-47
2021/10/25 13:43:52;;;;;;;6.27;4.10;;;12.20;99.90;;;;;;5040288;28;20908;-45
2021/10/25 13:46:19;;;;;;;7.97;4.53;;;12.20;99.90;;;;;;5036526;28;20726;-47
2021/10/25 13:48:47;;;;;;;5.53;3.57;;;12.20;99.90;;;;;;5018860;28;20211;-45
2021/10/25 13:51:14;;;;;;;7.77;4.30;;;12.20;99.90;;;;;;5036766;28;20742;-49
2021/10/25 13:53:40;;;;;;;4.93;4.43;;;12.20;99.90;;;;;;5037454;28;20223;-47
2021/10/25 13:56:08;;;;;;;5.83;4.20;;;12.10;99.90;;;;;;5036499;28;20203;-45
2021/10/25 13:58:35;;;;;;;6.77;3.90;;;12.20;99.90;;;;;;5041309;28;20298;-49
2021/10/25 14:01:02;;;;;;;6.83;4.20;;;12.10;99.90;;;;;;5033288;28;20199;-48
2021/10/25 14:03:28;;;;;;;4.63;4.03;;;12.10;99.90;;;;;;5025336;28;20395;-44
2021/10/25 14:05:59;;;;;;;5.57;4.23;;;12.10;99.90;;;;;;5042669;28;20195;-48
2021/10/25 14:08:25;;;;;;;5.53;4.13;;;12.20;99.90;;;;;;5022058;28;20295;-47
2021/10/25 14:10:53;;;;;;;6.90;4.30;;;12.20;99.90;;;;;;5035975;28;20225;-48
2021/10/25 14:13:27;;;;;;;12.00;5.13;;;12.20;99.90;;;;;;5035164;28;20212;-46
2021/10/25 14:16:08;;;;;;;5.37;3.97;;;12.20;99.90;;;;;;5037587;28;20691;-46
2021/10/25 14:18:35;;;;;;;5.53;4.27;;;12.20;99.90;;;;;;5023642;28;20218;-47
2021/10/25 14:21:03;;;;;;;6.77;4.30;;;12.20;99.90;;;;;;5042682;28;20195;-44
2021/10/25 14:23:30;;;;;;;8.27;4.23;;;12.20;99.90;;;;;;5029517;28;20942;-45
2021/10/25 14:25:57;;;;;;;9.00;4.00;;;12.20;99.90;;;;;;5035191;28;20239;-46